Time;durP1;ratioP1;P1;durP2;ratioP2;P2;SDS_P1;SDS_P2;PMS_P1;PMS_P2;Temp;Humidity;BMP_temperature;BMP_pressure;BME280_temperature;BME280_humidity;BME280_pressure;Samples;Min_cycle;Max_cycle;Signal;HPM_P1;HPM_P2
2022/05/17 00:02:20;;;;;;;3.05;1.25;;;;;;;23.69;43.62;101944.56;5016272;28;20030;-62
2022/05/17 00:04:45;;;;;;;4.25;1.40;;;;;;;23.69;43.58;101948.06;5016840;28;20018;-62
2022/05/17 00:07:14;;;;;;;5.93;1.60;;;;;;;23.69;43.20;101944.56;5016541;28;20033;-62
2022/05/17 00:09:39;;;;;;;5.47;1.50;;;;;;;23.67;43.27;101947.34;5015858;28;20105;-62
2022/05/17 00:12:05;;;;;;;5.13;1.52;;;;;;;23.66;43.50;101942.16;5016347;28;20049;-62
2022/05/17 00:14:31;;;;;;;3.65;1.35;;;;;;;23.65;43.27;101943.97;5016444;28;20026;-62
2022/05/17 00:17:00;;;;;;;4.88;1.35;;;;;;;23.64;43.34;101936.13;5015341;28;20462;-62
2022/05/17 00:19:25;;;;;;;7.50;1.80;;;;;;;23.64;43.71;101939.63;5016393;28;20054;-62
2022/05/17 00:21:51;;;;;;;4.80;1.50;;;;;;;23.63;43.40;101934.47;5016241;28;20378;-61
2022/05/17 00:24:18;;;;;;;5.28;1.73;;;;;;;23.62;43.27;101932.75;5015755;28;20018;-62
2022/05/17 00:26:44;;;;;;;4.32;1.48;;;;;;;23.61;43.59;101926.59;5016285;28;20088;-61
2022/05/17 00:29:10;;;;;;;6.88;1.60;;;;;;;23.60;43.68;101929.41;5015432;28;20022;-62
2022/05/17 00:31:38;;;;;;;4.82;1.63;;;;;;;23.59;43.73;101920.59;5016741;28;20105;-62
2022/05/17 00:34:04;;;;;;;4.60;1.30;;;;;;;23.60;43.45;101918.75;5016311;28;20038;-62
2022/05/17 00:36:31;;;;;;;5.72;1.52;;;;;;;23.59;43.62;101925.03;5016467;28;20045;-62
2022/05/17 00:38:56;;;;;;;5.93;1.17;;;;;;;23.59;43.62;101925.03;5016265;28;20032;-63
2022/05/17 00:41:21;;;;;;;4.10;1.30;;;;;;;23.57;43.33;101919.84;5016499;28;20113;-63
2022/05/17 00:46:44;;;;;;;4.85;1.42;;;;;;;23.55;43.56;101920.00;5015954;28;20036;-62
2022/05/17 00:49:13;;;;;;;4.88;1.60;;;;;;;23.55;43.32;101911.19;5015606;28;20026;-63
2022/05/17 00:51:39;;;;;;;6.15;1.55;;;;;;;23.55;43.71;101916.50;5015141;28;20030;-63
2022/05/17 00:54:13;;;;;;;4.82;1.98;;;;;;;23.54;43.14;101914.81;5015607;28;20022;-62
2022/05/17 00:56:45;;;;;;;3.45;1.40;;;;;;;23.54;43.73;101918.31;5015993;28;20030;-62
2022/05/17 00:59:17;;;;;;;6.03;1.70;;;;;;;23.53;43.60;101919.28;5014841;28;20029;-60
2022/05/17 01:01:43;;;;;;;4.82;1.50;;;;;;;23.52;43.28;101917.59;5015736;28;20113;-62
2022/05/17 01:04:12;;;;;;;5.80;1.42;;;;;;;23.52;43.29;101911.44;5013962;28;20030;-63
2022/05/17 01:06:44;;;;;;;4.22;1.60;;;;;;;23.50;43.69;101903.59;5014986;28;20030;-62
2022/05/17 01:09:10;;;;;;;5.03;1.70;;;;;;;23.50;43.47;101910.75;5015064;28;20482;-63
2022/05/17 01:11:36;;;;;;;3.65;1.25;;;;;;;23.50;43.52;101898.28;5014965;28;20062;-63
2022/05/17 01:16:45;;;;;;;4.30;1.55;;;;;;;23.49;43.64;101898.41;5015474;28;20088;-62
2022/05/17 01:19:12;;;;;;;5.65;2.03;;;;;;;23.48;43.28;101902.03;5014011;28;20050;-61
2022/05/17 01:21:38;;;;;;;4.72;1.60;;;;;;;23.48;43.22;101900.25;5015409;28;20036;-62
2022/05/17 01:24:04;;;;;;;5.63;1.60;;;;;;;23.48;43.36;101905.56;5015128;28;20026;-61
2022/05/17 01:26:35;;;;;;;5.13;1.77;;;;;;;23.48;43.25;101902.03;5014620;28;20064;-62
2022/05/17 01:29:02;;;;;;;6.22;1.60;;;;;;;23.47;43.52;101903.88;5014835;28;20466;-61
2022/05/17 01:31:28;;;;;;;4.90;1.40;;;;;;;23.47;43.54;101903.03;5014986;28;20041;-61
2022/05/17 01:33:53;;;;;;;3.90;1.60;;;;;;;23.46;43.18;101902.16;5013706;28;20059;-62
2022/05/17 01:36:22;;;;;;;4.43;1.57;;;;;;;23.46;43.69;101909.31;5015186;28;20037;-62
2022/05/17 01:38:51;;;;;;;5.43;1.50;;;;;;;23.46;43.19;101910.16;5015046;28;20274;-62
2022/05/17 01:41:17;;;;;;;4.60;1.98;;;;;;;23.45;43.71;101916.47;5014323;28;20045;-62
2022/05/17 01:43:42;;;;;;;4.65;1.80;;;;;;;23.46;43.43;101911.97;5014949;28;20470;-62
2022/05/17 01:46:10;;;;;;;4.07;1.53;;;;;;;23.44;43.61;101909.44;5014507;28;20092;-62
2022/05/17 01:48:37;;;;;;;4.55;1.50;;;;;;;23.45;43.76;101904.97;5014206;28;20275;-62
2022/05/17 01:51:05;;;;;;;4.55;1.70;;;;;;;23.45;43.72;101911.16;5014536;28;20030;-62
2022/05/17 01:53:31;;;;;;;4.50;1.27;;;;;;;23.44;43.59;101904.13;5013977;28;20051;-62
2022/05/17 01:55:56;;;;;;;3.90;1.30;;;;;;;23.44;43.40;101900.63;5014456;28;20034;-62
2022/05/17 01:58:24;;;;;;;4.40;1.10;;;;;;;23.44;43.44;101903.31;5014630;28;20022;-61
2022/05/17 02:00:50;;;;;;;6.55;1.50;;;;;;;23.44;43.72;101908.63;5013342;28;20930;-62
2022/05/17 02:03:15;;;;;;;4.50;1.37;;;;;;;23.42;43.27;101908.75;5014674;28;20030;-61
2022/05/17 02:05:40;;;;;;;4.60;1.43;;;;;;;23.42;43.51;101907.91;5014708;28;20356;-62
2022/05/17 02:08:06;;;;;;;4.38;1.52;;;;;;;23.42;43.43;101911.41;5013444;28;20050;-61
2022/05/17 02:10:31;;;;;;;4.45;1.83;;;;;;;23.43;43.34;101909.59;5014415;28;20543;-61
2022/05/17 02:12:58;;;;;;;4.57;1.70;;;;;;;23.42;43.54;101906.09;5014079;28;20435;-62
2022/05/17 02:15:25;;;;;;;5.55;1.55;;;;;;;23.42;43.67;101910.59;5012996;28;20112;-61
2022/05/17 02:17:51;;;;;;;5.63;1.60;;;;;;;23.40;43.61;101900.06;5014099;28;20033;-61
2022/05/17 02:20:16;;;;;;;4.88;1.90;;;;;;;23.40;43.47;101905.41;5014001;28;20046;-61
2022/05/17 02:22:41;;;;;;;4.40;1.63;;;;;;;23.41;43.46;101908.88;5013462;28;20026;-62
2022/05/17 02:25:08;;;;;;;3.00;1.40;;;;;;;23.41;43.85;101908.88;5013832;28;20496;-62
2022/05/17 02:27:33;;;;;;;4.15;1.50;;;;;;;23.39;43.50;101906.38;5014062;28;20346;-62
2022/05/17 02:29:59;;;;;;;3.90;1.30;;;;;;;23.41;43.48;101904.41;5012693;28;20180;-62
2022/05/17 02:32:25;;;;;;;4.27;1.70;;;;;;;23.41;43.46;101911.53;5014149;28;20030;-62
2022/05/17 02:34:50;;;;;;;5.13;1.58;;;;;;;23.41;43.40;101914.22;5013752;28;20298;-62
2022/05/17 02:37:16;;;;;;;5.57;1.63;;;;;;;23.39;43.61;101911.69;5013128;28;20086;-62
2022/05/17 02:39:42;;;;;;;3.73;1.53;;;;;;;23.40;43.64;101912.50;5013964;28;20065;-62
2022/05/17 02:42:09;;;;;;;4.50;1.63;;;;;;;23.41;43.79;101914.22;5013407;28;20271;-62
2022/05/17 02:44:34;;;;;;;6.53;1.98;;;;;;;23.39;43.36;101916.16;5013019;28;20053;-62
2022/05/17 02:47:00;;;;;;;4.15;1.40;;;;;;;23.39;43.67;101918.81;5013582;28;20470;-62
2022/05/17 02:49:25;;;;;;;3.72;1.45;;;;;;;23.39;43.72;101921.50;5013661;28;20162;-61
2022/05/17 02:51:50;;;;;;;4.40;1.70;;;;;;;23.38;43.56;101914.47;5012706;28;20436;-62
2022/05/17 02:54:16;;;;;;;5.00;1.58;;;;;;;23.37;43.73;101921.63;5013535;28;20271;-61
2022/05/17 02:56:41;;;;;;;3.43;1.23;;;;;;;23.38;43.54;101922.44;5013436;28;20026;-62
2022/05/17 02:59:06;;;;;;;4.57;1.70;;;;;;;23.38;43.44;101922.44;5012430;28;20279;-61
2022/05/17 03:01:34;;;;;;;5.03;1.45;;;;;;;23.38;43.49;101930.44;5013395;28;20030;-62
2022/05/17 03:04:00;;;;;;;4.68;1.50;;;;;;;23.37;43.35;101932.25;5012541;28;20390;-62
2022/05/17 03:06:26;;;;;;;4.30;1.50;;;;;;;23.36;43.48;101928.72;5013500;28;20025;-62
2022/05/17 03:08:54;;;;;;;5.32;1.77;;;;;;;23.35;43.12;101924.41;5013087;28;20140;-61
2022/05/17 03:11:19;;;;;;;4.57;1.50;;;;;;;23.36;43.68;101919.94;5012607;28;20034;-62
2022/05/17 03:13:45;;;;;;;4.93;1.80;;;;;;;23.35;43.32;101923.53;5013156;28;20040;-62
2022/05/17 03:16:10;;;;;;;4.93;1.80;;;;;;;23.34;43.79;101930.69;5013144;28;20329;-62
2022/05/17 03:18:36;;;;;;;5.22;1.88;;;;;;;23.34;43.28;101928.03;5012172;28;20604;-62
2022/05/17 03:21:01;;;;;;;4.43;1.80;;;;;;;23.33;43.51;101931.66;5013285;28;20037;-62
2022/05/17 03:23:26;;;;;;;4.13;1.90;;;;;;;23.34;43.31;101932.53;5013242;28;20030;-62
2022/05/17 03:25:52;;;;;;;4.40;1.57;;;;;;;23.32;43.26;101924.69;5012111;28;20092;-63
2022/05/17 03:28:17;;;;;;;4.67;1.80;;;;;;;23.33;43.44;101930.81;5012519;28;20630;-61
2022/05/17 03:30:42;;;;;;;4.72;1.70;;;;;;;23.32;43.33;101932.66;5013232;28;20291;-62
2022/05/17 03:33:08;;;;;;;3.53;1.42;;;;;;;23.32;43.37;101937.13;5012188;28;20025;-62
2022/05/17 03:35:34;;;;;;;4.50;1.80;;;;;;;23.31;43.72;101935.44;5013236;28;20381;-62
2022/05/17 03:37:59;;;;;;;4.93;1.80;;;;;;;23.33;43.06;101933.50;5012786;28;20025;-61
2022/05/17 03:40:25;;;;;;;4.37;1.70;;;;;;;23.31;43.62;101932.78;5012227;28;20458;-62
2022/05/17 03:42:50;;;;;;;3.97;1.60;;;;;;;23.30;43.67;101936.41;5012497;28;20657;-62
2022/05/17 03:45:15;;;;;;;5.32;1.80;;;;;;;23.30;43.73;101941.72;5013057;28;20537;-61
2022/05/17 03:47:41;;;;;;;4.00;1.60;;;;;;;23.28;43.60;101935.72;5012388;28;20029;-62
2022/05/17 03:50:12;;;;;;;5.43;1.60;;;;;;;23.29;43.41;101942.69;5012660;28;20025;-62
2022/05/17 03:52:37;;;;;;;4.80;1.60;;;;;;;23.29;43.67;101930.25;5013001;28;20036;-62
2022/05/17 03:55:05;;;;;;;6.13;1.88;;;;;;;23.29;43.26;101937.38;5011773;28;20105;-62
2022/05/17 03:57:30;;;;;;;5.00;1.70;;;;;;;23.28;43.61;101939.19;5012698;28;20056;-62
2022/05/17 03:59:56;;;;;;;3.50;1.50;;;;;;;23.29;43.46;101943.56;5012705;28;20050;-62
2022/05/17 04:02:23;;;;;;;3.42;1.45;;;;;;;23.27;43.62;101929.53;5012215;28;20489;-62
2022/05/17 04:04:55;;;;;;;4.15;1.50;;;;;;;23.26;43.29;101933.19;5012424;28;20053;-63
2022/05/17 04:07:20;;;;;;;3.53;1.50;;;;;;;23.25;43.60;101936.81;5011991;28;20018;-63
2022/05/17 04:09:46;;;;;;;4.75;1.70;;;;;;;23.25;43.60;101930.66;5012546;28;20411;-63
2022/05/17 04:12:12;;;;;;;4.15;1.83;;;;;;;23.25;43.70;101942.13;5012245;28;20113;-62
2022/05/17 04:14:37;;;;;;;2.83;1.42;;;;;;;23.25;43.30;101943.94;5011884;28;20477;-62
2022/05/17 04:17:04;;;;;;;5.57;1.52;;;;;;;23.24;43.46;101945.78;5012273;28;20041;-62
2022/05/17 04:19:32;;;;;;;3.70;1.42;;;;;;;23.25;43.68;101941.28;5012297;28;20065;-62
2022/05/17 04:21:58;;;;;;;4.45;1.65;;;;;;;23.25;43.67;101943.94;5011577;28;20034;-62
2022/05/17 04:24:24;;;;;;;4.45;1.70;;;;;;;23.26;43.28;101950.97;5012352;28;20029;-62
2022/05/17 04:26:50;;;;;;;4.07;1.50;;;;;;;23.24;43.49;101950.22;5012058;28;20360;-62
2022/05/17 04:29:19;;;;;;;3.08;1.52;;;;;;;23.23;43.53;101957.38;5011833;28;20428;-62
2022/05/17 04:31:45;;;;;;;4.30;1.70;;;;;;;23.24;43.34;101952.91;5012760;28;20026;-62
2022/05/17 04:34:13;;;;;;;3.53;1.50;;;;;;;23.24;43.47;101944.91;5012191;28;20417;-62
2022/05/17 04:36:39;;;;;;;4.43;1.80;;;;;;;23.24;43.48;101953.75;5011674;28;20682;-62
2022/05/17 04:39:07;;;;;;;3.38;1.50;;;;;;;23.24;43.11;101952.91;5014247;28;20100;-62
2022/05/17 04:41:33;;;;;;;4.53;1.88;;;;;;;23.23;43.51;101954.72;5015851;28;20065;-62
2022/05/17 04:43:58;;;;;;;4.85;1.63;;;;;;;23.24;43.88;101958.22;5015192;28;20049;-61
2022/05/17 04:46:24;;;;;;;3.92;1.50;;;;;;;23.23;43.50;101957.38;5016062;28;20022;-62
2022/05/17 04:48:50;;;;;;;3.55;1.48;;;;;;;23.23;43.49;101956.53;5015718;28;20081;-63
2022/05/17 04:51:15;;;;;;;4.05;1.70;;;;;;;23.22;43.84;101955.69;5015049;28;20421;-61
2022/05/17 04:53:41;;;;;;;4.77;1.40;;;;;;;23.22;43.68;101958.34;5015941;28;20029;-63
2022/05/17 04:56:08;;;;;;;4.93;1.98;;;;;;;23.22;43.97;101953.03;5015788;28;20763;-63
2022/05/17 04:58:36;;;;;;;4.18;1.65;;;;;;;23.22;43.65;101954.84;5015159;28;20014;-62
2022/05/17 05:01:03;;;;;;;4.68;1.65;;;;;;;23.22;43.57;101954.84;5015388;28;20025;-62
2022/05/17 05:03:31;;;;;;;4.05;1.90;;;;;;;23.23;43.95;101956.53;5015286;28;20022;-63
2022/05/17 05:05:57;;;;;;;4.03;1.52;;;;;;;23.23;43.93;101956.53;5015423;28;20064;-62
2022/05/17 05:08:22;;;;;;;5.07;1.77;;;;;;;23.22;43.80;101961.00;5015424;28;20061;-62
2022/05/17 05:10:55;;;;;;;5.13;1.80;;;;;;;23.22;44.08;101968.16;5014411;28;20095;-62
2022/05/17 05:13:22;;;;;;;4.22;1.80;;;;;;;23.23;43.76;101964.53;5015155;28;20022;-62
2022/05/17 05:15:48;;;;;;;4.10;1.80;;;;;;;23.23;43.99;101975.16;5015354;28;20022;-61
2022/05/17 05:18:14;;;;;;;5.13;1.80;;;;;;;23.22;44.02;101971.63;5014329;28;20493;-61
2022/05/17 05:20:40;;;;;;;3.67;1.55;;;;;;;23.23;44.01;101981.31;5014892;28;20046;-62
2022/05/17 05:23:06;;;;;;;4.38;1.92;;;;;;;23.23;43.62;101976.00;5015070;28;20037;-61
2022/05/17 05:25:34;;;;;;;4.68;2.08;;;;;;;23.24;43.67;101987.47;5014516;28;20022;-61
2022/05/17 05:27:59;;;;;;;5.10;2.13;;;;;;;23.24;43.46;101987.47;5014908;28;20417;-62
2022/05/17 05:30:24;;;;;;;4.20;1.70;;;;;;;23.23;43.74;101991.94;5015139;28;20037;-62
2022/05/17 05:32:50;;;;;;;4.25;1.70;;;;;;;23.24;43.74;101987.47;5012728;28;20275;-62
2022/05/17 05:35:18;;;;;;;4.90;1.67;;;;;;;23.25;43.90;101991.81;5014902;28;20026;-62
2022/05/17 05:37:44;;;;;;;4.05;1.50;;;;;;;23.25;43.53;101997.13;5015092;28;20186;-62
2022/05/17 05:40:11;;;;;;;3.83;1.55;;;;;;;23.24;43.57;101998.09;5013739;28;20466;-62
2022/05/17 05:42:38;;;;;;;5.00;1.60;;;;;;;23.24;44.13;102006.94;5014899;28;20037;-62
2022/05/17 05:45:04;;;;;;;4.78;1.75;;;;;;;23.24;43.60;102001.63;5014465;28;20057;-62
2022/05/17 05:47:32;;;;;;;3.33;1.42;;;;;;;23.27;43.65;102011.13;5014323;28;20021;-61
2022/05/17 05:50:00;;;;;;;3.90;1.67;;;;;;;23.25;44.00;102005.94;5013496;28;20516;-63
2022/05/17 05:52:25;;;;;;;5.15;2.10;;;;;;;23.21;44.24;101999.22;5014748;28;20036;-64
2022/05/17 05:54:51;;;;;;;5.65;2.00;;;;;;;23.17;44.18;102014.56;5013679;28;20130;-63
2022/05/17 05:57:16;;;;;;;3.90;1.70;;;;;;;23.17;44.68;102019.06;5014626;28;20072;-63
2022/05/17 05:59:42;;;;;;;5.10;1.80;;;;;;;23.17;44.23;102011.91;5013764;28;20540;-63
2022/05/17 06:02:08;;;;;;;3.85;1.60;;;;;;;23.20;44.61;102016.16;5014094;28;20018;-63
2022/05/17 06:04:37;;;;;;;5.53;1.80;;;;;;;23.21;44.28;102009.88;5014396;28;20025;-63
2022/05/17 06:07:03;;;;;;;3.75;1.73;;;;;;;23.23;44.62;102007.06;5013377;28;20021;-63
2022/05/17 06:09:29;;;;;;;5.20;1.63;;;;;;;23.25;44.48;102007.78;5014327;28;20049;-62
2022/05/17 06:11:55;;;;;;;4.93;1.70;;;;;;;23.24;44.31;102001.63;5013949;28;20477;-63
2022/05/17 06:14:20;;;;;;;5.43;1.52;;;;;;;23.23;44.52;102007.06;5013462;28;20026;-63
2022/05/17 06:16:47;;;;;;;4.25;1.80;;;;;;;23.23;44.78;102007.91;5014138;28;20030;-62
2022/05/17 06:19:12;;;;;;;5.13;1.60;;;;;;;23.24;44.33;102012.25;5013493;28;20401;-63
2022/05/17 06:21:38;;;;;;;2.97;1.30;;;;;;;23.26;44.56;102015.63;5013472;28;20030;-63
2022/05/17 06:24:04;;;;;;;3.88;1.48;;;;;;;23.27;44.17;102017.28;5013994;28;20275;-64
2022/05/17 06:26:30;;;;;;;4.82;1.88;;;;;;;23.30;44.31;102019.69;5014103;28;20025;-61
2022/05/17 06:28:55;;;;;;;4.22;1.42;;;;;;;23.30;44.49;102016.19;5013005;28;20466;-62
2022/05/17 06:31:20;;;;;;;5.25;1.80;;;;;;;23.27;45.20;102008.47;5014516;28;20061;-62
2022/05/17 06:33:48;;;;;;;4.15;1.80;;;;;;;23.27;45.31;102008.47;5014512;28;20069;-62
2022/05/17 06:36:14;;;;;;;5.10;1.83;;;;;;;23.29;45.27;102018.03;5013496;28;20034;-64
2022/05/17 06:38:39;;;;;;;5.40;1.88;;;;;;;23.28;45.08;102020.81;5014030;28;20033;-66
2022/05/17 06:41:05;;;;;;;5.17;1.77;;;;;;;23.27;45.24;102017.28;5014200;28;20022;-63
2022/05/17 06:43:34;;;;;;;6.43;1.75;;;;;;;23.30;45.26;102027.66;5013133;28;20072;-66
2022/05/17 06:45:59;;;;;;;4.00;1.80;;;;;;;23.31;45.20;102024.03;5013531;28;20064;-66
2022/05/17 06:48:24;;;;;;;5.80;1.85;;;;;;;23.32;45.19;102031.06;5013710;28;20054;-59
2022/05/17 06:50:49;;;;;;;3.83;1.60;;;;;;;23.34;45.31;102028.28;5012775;28;20112;-62
2022/05/17 06:53:15;;;;;;;5.83;1.73;;;;;;;23.36;45.24;102035.13;5013895;28;20108;-60
2022/05/17 06:55:41;;;;;;;9.63;1.80;;;;;;;23.37;45.60;102033.34;5013786;28;20385;-61
2022/05/17 06:58:09;;;;;;;4.22;1.60;;;;;;;23.39;45.10;102031.38;5012756;28;20275;-61
2022/05/17 07:00:34;;;;;;;6.80;2.10;;;;;;;23.40;45.65;102029.56;5013563;28;20029;-62
2022/05/17 07:03:03;;;;;;;5.57;1.90;;;;;;;23.40;44.96;102033.06;5012442;28;20026;-63
2022/05/17 07:05:29;;;;;;;5.10;1.80;;;;;;;23.40;45.46;102033.06;5013695;28;20017;-62
2022/05/17 07:07:54;;;;;;;4.32;1.70;;;;;;;23.41;44.92;102033.91;5015481;28;20065;-61
2022/05/17 07:13:09;;;;;;;4.83;2.03;;;;;;;23.47;44.93;102034.22;5014493;28;20100;-63
2022/05/17 07:15:39;;;;;;;5.80;1.60;;;;;;;23.48;44.80;102030.59;5013624;28;20044;-61
2022/05/17 07:18:06;;;;;;;6.95;1.90;;;;;;;23.50;44.89;102035.78;5012404;28;20026;-60
2022/05/17 07:20:34;;;;;;;6.55;1.90;;;;;;;23.49;44.57;102034.91;5013046;28;20046;-61
2022/05/17 07:22:59;;;;;;;4.80;1.63;;;;;;;23.50;45.10;102035.78;5013380;28;20037;-59
2022/05/17 07:25:25;;;;;;;6.28;1.90;;;;;;;23.53;44.97;102038.19;5012469;28;20018;-60
2022/05/17 07:27:51;;;;;;;5.82;2.05;;;;;;;23.55;45.00;102046.88;5012793;28;20393;-58
2022/05/17 07:30:16;;;;;;;4.30;1.92;;;;;;;23.55;44.82;102047.69;5013218;28;20485;-60
2022/05/17 07:32:41;;;;;;;4.20;1.73;;;;;;;23.55;44.77;102038.88;5012428;28;20034;-61
2022/05/17 07:35:07;;;;;;;7.30;1.95;;;;;;;23.58;44.66;102037.78;5012940;28;20034;-60
2022/05/17 07:37:34;;;;;;;5.55;1.90;;;;;;;23.58;45.05;102041.28;5013260;28;20037;-60
2022/05/17 07:39:59;;;;;;;4.45;1.77;;;;;;;23.60;44.96;102039.31;5011979;28;20121;-61
2022/05/17 07:42:25;;;;;;;3.53;1.50;;;;;;;23.61;44.65;102037.53;5012872;28;20110;-59
2022/05/17 07:44:50;;;;;;;5.38;2.20;;;;;;;23.62;44.85;102040.03;5012873;28;20030;-60
2022/05/17 07:47:15;;;;;;;4.37;1.70;;;;;;;23.63;44.58;102039.06;5012252;28;20026;-60
2022/05/17 07:49:42;;;;;;;4.63;1.80;;;;;;;23.65;44.48;102041.59;5012766;28;20754;-60
2022/05/17 07:52:08;;;;;;;5.25;1.88;;;;;;;23.64;44.44;102040.75;5012550;28;20022;-61
2022/05/17 07:54:37;;;;;;;4.82;1.73;;;;;;;23.63;44.60;102044.38;5011962;28;20128;-61
2022/05/17 07:57:05;;;;;;;3.70;1.67;;;;;;;23.63;44.97;102044.38;5012390;28;20022;-61
2022/05/17 07:59:30;;;;;;;5.25;2.35;;;;;;;23.62;44.95;102048.00;5012178;28;20149;-61
2022/05/17 08:01:56;;;;;;;6.57;2.30;;;;;;;23.63;44.70;102048.88;5012539;28;20105;-61
2022/05/17 08:04:23;;;;;;;5.37;1.97;;;;;;;23.62;44.84;102048.00;5012861;28;20316;-61
2022/05/17 08:06:49;;;;;;;4.80;1.70;;;;;;;23.63;45.09;102046.22;5011542;28;20325;-60
2022/05/17 08:09:14;;;;;;;3.80;1.70;;;;;;;23.63;44.56;102056.84;5012706;28;20552;-61
2022/05/17 08:11:40;;;;;;;4.80;1.80;;;;;;;23.63;45.07;102063.00;5012512;28;20160;-61
2022/05/17 08:14:05;;;;;;;6.43;1.73;;;;;;;23.62;44.67;102061.31;5013763;28;20740;-61
2022/05/17 08:16:31;;;;;;;6.05;2.20;;;;;;;23.60;45.03;102054.47;5016661;28;20117;-61
2022/05/17 08:19:04;;;;;;;3.53;1.70;;;;;;;23.54;45.26;102055.81;5016144;28;20386;-61
2022/05/17 08:21:30;;;;;;;4.22;1.85;;;;;;;23.53;44.83;102060.31;5015685;28;20275;-61
2022/05/17 08:23:55;;;;;;;7.50;2.20;;;;;;;23.52;45.36;102061.25;5015939;28;20516;-61
2022/05/17 08:29:04;;;;;;;4.57;2.10;;;;;;;23.55;45.05;102060.19;5015458;28;20040;-61
2022/05/17 08:31:29;;;;;;;6.05;1.85;;;;;;;23.55;45.30;102053.03;5016272;28;20042;-61
2022/05/17 08:33:54;;;;;;;5.57;1.60;;;;;;;23.57;44.79;102055.56;5016035;28;20026;-61
2022/05/17 08:36:19;;;;;;;4.27;1.53;;;;;;;23.59;44.84;102060.75;5015380;28;20125;-60
2022/05/17 08:38:49;;;;;;;4.73;1.67;;;;;;;23.59;44.74;102058.94;5016020;28;20076;-61
2022/05/17 08:41:41;;;;;;;3.63;1.52;;;;;;;23.59;45.04;102060.75;5016060;28;20818;-61
2022/05/17 08:44:14;;;;;;;4.05;1.38;;;;;;;23.59;45.25;102060.75;5015993;28;20033;-62
2022/05/17 08:47:11;;;;;;;4.75;1.67;;;;;;;23.59;44.88;102060.75;5016070;28;20124;-61
2022/05/17 08:49:45;;;;;;;5.95;2.00;;;;;;;23.59;45.08;102060.75;5015271;28;20033;-61
2022/05/17 08:52:18;;;;;;;5.50;1.80;;;;;;;23.59;45.01;102055.44;5015577;28;20482;-61
2022/05/17 08:55:22;;;;;;;5.57;2.00;;;;;;;23.58;45.32;102056.41;5015761;28;20382;-62
2022/05/17 08:57:53;;;;;;;5.38;2.17;;;;;;;23.60;45.15;102059.78;5015260;28;20030;-61
2022/05/17 09:00:25;;;;;;;5.13;1.73;;;;;;;23.58;45.36;102056.41;5016071;28;20056;-60
2022/05/17 09:02:56;;;;;;;4.22;1.80;;;;;;;23.55;44.99;102049.53;5014209;28;20473;-60
2022/05/17 09:05:33;;;;;;;4.20;1.50;;;;;;;23.53;45.12;102049.66;5015636;28;20025;-61
2022/05/17 09:08:33;;;;;;;5.68;1.85;;;;;;;23.56;45.12;102048.56;5015358;28;20083;-62
2022/05/17 09:11:18;;;;;;;3.75;1.58;;;;;;;23.56;45.42;102048.56;5014514;28;20033;-62
2022/05/17 09:13:47;;;;;;;4.30;1.98;;;;;;;23.57;44.87;102046.75;5015840;28;20021;-61
2022/05/17 09:16:14;;;;;;;6.07;1.88;;;;;;;23.56;45.24;102043.25;5015272;28;20018;-61
2022/05/17 09:18:41;;;;;;;5.05;1.70;;;;;;;23.57;45.08;102044.09;5014857;28;20030;-62
2022/05/17 09:21:26;;;;;;;3.45;1.42;;;;;;;23.58;45.11;102037.78;5014943;28;20084;-61
2022/05/17 09:23:51;;;;;;;4.35;1.67;;;;;;;23.57;45.23;102031.59;5014047;28;20097;-61
2022/05/17 09:26:18;;;;;;;4.73;1.70;;;;;;;23.58;44.97;102024.50;5014349;28;20120;-61
2022/05/17 09:28:51;;;;;;;3.83;1.67;;;;;;;23.59;44.77;102028.81;5015243;28;20814;-61
2022/05/17 09:31:37;;;;;;;4.82;1.80;;;;;;;23.59;44.75;102023.50;5014484;28;20037;-62
2022/05/17 09:34:06;;;;;;;5.15;1.83;;;;;;;23.59;44.64;102024.34;5014788;28;20485;-62
2022/05/17 09:36:41;;;;;;;3.92;1.52;;;;;;;23.60;45.16;102025.19;5015082;28;20052;-61
2022/05/17 09:39:07;;;;;;;5.75;1.58;;;;;;;23.60;45.06;102027.84;5013899;28;20371;-62
2022/05/17 09:41:39;;;;;;;3.15;1.70;;;;;;;23.60;45.13;102025.19;5015167;28;20049;-62
2022/05/17 09:44:10;;;;;;;3.33;1.50;;;;;;;23.59;44.77;102026.16;5014662;28;20030;-60
2022/05/17 09:46:47;;;;;;;4.55;1.58;;;;;;;23.52;44.82;102016.03;5014069;28;20363;-61
2022/05/17 09:54:52;;;;;;;5.57;1.80;;;;;;;23.50;45.88;102011.84;5014728;28;20076;-62
2022/05/17 09:57:23;;;;;;;4.13;1.88;;;;;;;23.53;45.90;102008.91;5014706;28;20045;-61
2022/05/17 10:00:01;;;;;;;8.07;2.03;;;;;;;23.54;45.41;102008.78;5015932;28;20049;-61
2022/05/17 10:02:29;;;;;;;5.13;2.17;;;;;;;23.56;45.32;101995.34;5015324;28;20083;-62
2022/05/17 10:04:56;;;;;;;5.70;1.73;;;;;;;23.59;44.84;101994.22;5014348;28;20462;-60
2022/05/17 10:07:27;;;;;;;4.72;1.75;;;;;;;23.59;45.27;101999.53;5013941;28;20398;-62
2022/05/17 10:09:55;;;;;;;4.20;1.80;;;;;;;23.60;44.93;101998.59;5014240;28;20029;-61
2022/05/17 10:12:29;;;;;;;4.60;1.60;;;;;;;23.61;44.93;101994.97;5014503;28;20075;-62
2022/05/17 10:15:04;;;;;;;6.10;1.70;;;;;;;23.61;44.59;101986.97;5013821;28;20076;-60
2022/05/17 10:17:43;;;;;;;4.35;1.90;;;;;;;23.65;44.51;101985.72;5014576;28;20045;-60
2022/05/17 10:20:20;;;;;;;5.22;1.77;;;;;;;23.66;44.34;101990.91;5013486;28;20060;-61
2022/05/17 10:23:00;;;;;;;5.47;1.60;;;;;;;23.70;44.21;101986.16;5014374;28;20069;-61
2022/05/17 10:25:41;;;;;;;4.35;2.10;;;;;;;23.72;44.05;101979.72;5014550;28;20097;-61
2022/05/17 10:28:14;;;;;;;3.53;1.35;;;;;;;23.75;44.21;101983.09;5013389;28;20474;-61
2022/05/17 10:30:45;;;;;;;3.58;1.33;;;;;;;23.75;44.62;101980.44;5014449;28;20037;-62
2022/05/17 10:33:19;;;;;;;4.75;1.58;;;;;;;23.78;44.51;101977.50;5013880;28;20481;-64
2022/05/17 10:35:52;;;;;;;3.90;1.63;;;;;;;23.82;44.03;101981.59;5013206;28;20374;-65
2022/05/17 10:38:22;;;;;;;5.70;1.80;;;;;;;23.83;44.29;101978.81;5014509;28;20057;-63
2022/05/17 10:40:50;;;;;;;4.45;1.45;;;;;;;23.86;44.54;101975.88;5014168;28;20026;-63
2022/05/17 10:43:32;;;;;;;5.47;1.70;;;;;;;23.86;44.49;101970.56;5013316;28;20032;-63
2022/05/17 10:46:15;;;;;;;4.32;1.60;;;;;;;23.89;44.30;101969.44;5014823;28;20418;-63
2022/05/17 10:49:02;;;;;;;5.57;1.80;;;;;;;23.93;44.35;101970.03;5013902;28;20385;-63
2022/05/17 10:51:51;;;;;;;4.35;1.50;;;;;;;23.96;44.11;101973.25;5013679;28;20474;-63
2022/05/17 10:54:35;;;;;;;4.45;1.58;;;;;;;23.98;44.52;101971.28;5013795;28;20030;-64
2022/05/17 10:57:43;;;;;;;4.82;1.40;;;;;;;24.01;44.11;101967.53;5013209;28;20087;-64
2022/05/17 11:00:18;;;;;;;5.35;1.58;;;;;;;24.04;44.24;101968.06;5017336;28;20037;-65
2022/05/17 11:03:07;;;;;;;4.03;1.65;;;;;;;24.03;43.90;101966.38;5013197;28;20018;-62
2022/05/17 11:05:54;;;;;;;3.92;1.60;;;;;;;24.02;43.95;101966.53;5013921;28;20022;-65
2022/05/17 11:08:37;;;;;;;3.33;1.10;;;;;;;24.05;43.56;101959.13;5014135;28;20116;-60
2022/05/17 11:11:40;;;;;;;4.20;1.50;;;;;;;24.05;43.70;101950.28;5012872;28;20033;-62
2022/05/17 11:14:17;;;;;;;5.93;1.40;;;;;;;24.01;43.71;101951.53;5013082;28;20042;-63
2022/05/17 11:16:54;;;;;;;4.97;1.77;;;;;;;23.99;43.62;101948.16;5012804;28;20474;-63
2022/05/17 11:19:46;;;;;;;3.40;1.60;;;;;;;24.02;43.52;101945.22;5013321;28;20050;-60
2022/05/17 11:22:26;;;;;;;4.28;1.40;;;;;;;24.02;44.03;101939.88;5010493;28;20038;-62
2022/05/17 11:25:14;;;;;;;4.68;1.60;;;;;;;24.03;44.24;101929.09;5013192;28;20057;-63
2022/05/17 11:27:43;;;;;;;5.47;1.33;;;;;;;24.04;43.99;101924.66;5013069;28;20033;-61
2022/05/17 11:30:20;;;;;;;6.38;1.42;;;;;;;24.06;44.15;101930.66;5013039;28;20401;-60
2022/05/17 11:33:10;;;;;;;3.33;1.25;;;;;;;24.09;43.79;101917.91;5013846;28;20033;-62
2022/05/17 11:35:48;;;;;;;4.75;1.30;;;;;;;24.11;43.76;101920.44;5013384;28;20040;-60
2022/05/17 11:38:19;;;;;;;3.60;1.48;;;;;;;24.14;43.81;101916.66;5012730;28;20018;-61
2022/05/17 11:40:47;;;;;;;3.33;1.40;;;;;;;24.20;43.51;101918.78;5013077;28;20018;-62
2022/05/17 11:46:28;;;;;;;6.00;1.30;;;;;;;24.22;43.65;101906.97;5011930;28;20402;-63
2022/05/17 11:48:59;;;;;;;3.45;1.20;;;;;;;24.25;43.39;101909.38;5011739;28;20036;-64
2022/05/17 11:51:31;;;;;;;3.38;1.33;;;;;;;24.24;43.36;101894.38;5012577;28;20030;-63
2022/05/17 11:53:57;;;;;;;3.03;1.20;;;;;;;24.23;43.68;101894.53;5012708;28;20481;-63